Aérodrome :
LOGIN :

S'inscrire | Disclaimer

   EN    FR    IT 

 










Légende :    VFR   VFR Marginal   IFR   IFR Intensif   IFR Très Intensif
Visi : 
Plafond : 
>= 8 km
>= 3000ft
5 à 8 km
1000 à 3000 ft
1500m à 5 km
500 à 1000 ft
800 à 1500m
200 à 500 ft
< 800m
< 200 ft
Symboles :   Orages  Brouillard  Fortes neiges  Fortes précipitations  Vent > 20 kt
SIGMETs :   Divers  Orages  Givrage  Turbulence  Onde Orograph.  Cendres Volcan.







- Altitude de l'aérodrome : 1106 ft
- Voir les cartes d'approche


LFSO - Nancy / Ochey

DERNIER METAR :
  • 161730Z AUTO 03005KT CAVOK 28/09 Q1012

METARs EXPIRÉS :
  • 161700Z AUTO 03006KT 340V090 CAVOK 29/09 Q1012
  • 161630Z AUTO 03006KT 340V060 CAVOK 29/10 Q1012
  • 161600Z AUTO VRB05KT CAVOK 28/10 Q1012 TEMPO 3000 SHRA SCT070TCU
  • 161530Z AUTO 06005KT 010V100 CAVOK 28/10 Q1012 TEMPO 3000 SHRA SCT070TCU
  • 161500Z AUTO 05007KT 010V120 CAVOK 28/11 Q1012 TEMPO 3000 SHRA SCT070TCU

TAF TAF LFSO
Valide du 16 à 15h jusqu'au 17 à 15h UTC


161400Z 1615/1715 02005KT CAVOK
PROB40
TEMPO 1615/1702 3000 SHRA SCT070TCU
PROB30
TEMPO 1619/1624 VRB15G25KT 2000 TSRA BKN070CB
BECMG 1710/1712 31010KT
Pas de NOTAMs connus pour ce terrain.



MET'MAP, la Météo Aéronautique d'un coup d'oeil ! - Copyright ORBIFLY Décembre 2007 - Disclaimer

ORBIFLY MET'MAP TEAM :

Programmation & Développement : Alexandra Zaïnal
Conception & Développement : Baudouin d'Aumeries
Co-Programmation & Développement : Marc-Olivier Méhu
Soutien technique & logistique : Manuel Goepfert

Contact : metmap@orbifly.com




SOURCES & CREDITS :

   NOAA